マニラ/ニノイ・アキノ の空港の天気 - METARとTAF

ニノイ・アキノ国際空港 ( RPLL / MNL ) - フィリピン マニラ
飛行場実況気象(Metar)
観測時間02/17 22:00 PHT (02/17 14:00 UTC)
風向・風速東南東 3m/s
視程10km以上
天気現象
少しの雲 雲底高度 760m
全天の4割程度の雲 雲底高度 3050m
気温27℃
湿度66%
気圧1015hPa
METARRPLL 171400Z 12006KT 9999 FEW025 SCT100 27/20 Q1015 NOSIG RMK A2997
過去の天気等 Google飛行場航空写真 Wunderground天気予報

過去48時間のMETAR

飛行場予報(TAF)
発表時間: 2/17 19:00 PHT (2/17 11:00 UTC)
予報対象時間: 17日20時 PHT ~ 19日2時 PHT
風向・風速東南東 4m/s
視程10km以上
少しの雲 雲底高度 760m
17日20時 PHT ~ 18日2時 PHT に一時的に
風向・風速東南東 3m/s
少しの雲 雲底高度 700m
18日2時 PHT ~ 18日8時 PHT に一時的に
風向・風速東 3m/s
TAF RPLL 171100Z 1712/1818 12008KT 9999 FEW025 TX32/1807Z TN24/1722Z
TEMPO 1712/1718 11006KT FEW023
TEMPO 1718/1724 09006KT